createdAt,value
2023-01-06T00:01:19.866Z,83.07
2023-01-06T00:03:52.750Z,81.55
2023-01-06T00:06:27.739Z,81.92
2023-01-06T00:09:03.759Z,81.44
2023-01-06T00:11:31.840Z,81.13
2023-01-06T00:14:00.245Z,80.38
2023-01-06T00:16:27.847Z,80.36
2023-01-06T00:18:57.579Z,80.71
2023-01-06T00:21:25.836Z,80.41
2023-01-06T00:23:53.597Z,81.07
2023-01-06T00:26:21.601Z,81.03
2023-01-06T00:28:52.592Z,80.86
2023-01-06T00:31:20.235Z,81.08
2023-01-06T00:33:47.789Z,81.13
2023-01-06T00:36:15.647Z,81.13
2023-01-06T00:38:43.412Z,81.23
2023-01-06T00:41:31.809Z,81.60
2023-01-06T00:44:00.545Z,82.01
2023-01-06T00:46:30.253Z,82.12
2023-01-06T00:49:04.928Z,82.09
2023-01-06T00:51:36.412Z,82.50
2023-01-06T00:54:04.535Z,83.27
2023-01-06T00:56:32.078Z,83.77
2023-01-06T00:58:59.705Z,83.56
2023-01-06T01:01:27.339Z,83.05
2023-01-06T01:03:55.270Z,82.51
2023-01-06T01:06:22.903Z,82.57
2023-01-06T01:08:58.919Z,83.54
2023-01-06T01:11:45.843Z,83.44
2023-01-06T01:14:16.438Z,84.33
2023-01-06T01:16:44.808Z,84.91
2023-01-06T01:19:13.425Z,86.07
2023-01-06T01:21:41.505Z,85.82
2023-01-06T01:24:09.469Z,85.01
2023-01-06T01:26:37.123Z,85.51
2023-01-06T01:29:05.024Z,85.73
2023-01-06T01:31:32.841Z,85.98
2023-01-06T01:34:02.187Z,85.81
2023-01-06T01:36:29.952Z,86.05
2023-01-06T01:38:58.629Z,85.42
2023-01-06T01:41:27.695Z,86.44
2023-01-06T01:43:56.592Z,86.10
2023-01-06T01:46:34.116Z,86.18
2023-01-06T01:49:26.975Z,85.81
2023-01-06T01:51:57.587Z,86.64
2023-01-06T01:54:30.103Z,86.80
2023-01-06T01:57:14.157Z,86.49
2023-01-06T01:59:43.498Z,87.01
2023-01-06T02:02:13.961Z,86.72
2023-01-06T02:04:45.019Z,86.39
2023-01-06T02:07:13.308Z,86.32
2023-01-06T02:09:59.309Z,86.91
2023-01-06T02:12:26.884Z,86.23
2023-01-06T02:14:54.580Z,86.16
2023-01-06T02:17:40.466Z,86.80
2023-01-06T02:20:13.789Z,86.33
2023-01-06T02:23:05.595Z,86.46
2023-01-06T02:25:36.161Z,86.50
2023-01-06T02:28:22.961Z,86.52
2023-01-06T02:31:24.279Z,87.08
2023-01-06T02:34:03.589Z,86.66
2023-01-06T02:37:14.785Z,87.09
2023-01-06T02:39:49.821Z,88.20
2023-01-06T02:42:47.362Z,89.05
2023-01-06T02:45:39.765Z,88.81
2023-01-06T02:48:46.894Z,88.50
2023-01-06T02:51:25.662Z,88.35
2023-01-06T02:54:23.579Z,89.15
2023-01-06T02:57:03.896Z,89.19
2023-01-06T02:59:36.644Z,89.33
2023-01-06T03:02:06.726Z,89.98
2023-01-06T03:04:40.158Z,91.04
2023-01-06T03:07:09.762Z,91.36
2023-01-06T03:09:40.136Z,90.81
2023-01-06T03:12:20.296Z,91.79
2023-01-06T03:14:53.203Z,92.01
2023-01-06T03:17:20.946Z,93.36
2023-01-06T03:19:48.508Z,93.48
2023-01-06T03:22:18.281Z,93.99
2023-01-06T03:24:46.555Z,94.06
2023-01-06T03:27:20.493Z,93.10
2023-01-06T03:29:49.073Z,92.20
2023-01-06T03:32:26.886Z,91.70
2023-01-06T03:35:22.147Z,91.80
2023-01-06T03:38:04.847Z,91.67
2023-01-06T03:40:46.826Z,91.56
2023-01-06T03:43:17.425Z,91.46
2023-01-06T03:45:57.031Z,91.32
2023-01-06T03:48:57.303Z,92.11
2023-01-06T03:51:28.100Z,90.69
2023-01-06T03:54:08.310Z,89.29
2023-01-06T03:56:45.853Z,88.28
2023-01-06T03:59:19.485Z,88.21
2023-01-06T04:01:50.942Z,87.98
2023-01-06T04:04:20.499Z,87.05
2023-01-06T04:06:49.299Z,86.75
2023-01-06T04:09:17.195Z,85.67
2023-01-06T04:12:03.854Z,85.51
2023-01-06T04:14:34.564Z,85.54
2023-01-06T04:17:03.048Z,85.48
2023-01-06T04:19:30.907Z,85.21
2023-01-06T04:21:58.396Z,85.28
2023-01-06T04:24:29.821Z,85.09
2023-01-06T04:26:57.866Z,84.90
2023-01-06T04:29:25.427Z,83.68
2023-01-06T04:31:55.479Z,83.19
2023-01-06T04:34:23.258Z,82.77
2023-01-06T04:36:50.840Z,83.07
2023-01-06T04:39:18.738Z,83.67
2023-01-06T04:41:46.241Z,83.56
2023-01-06T04:44:13.688Z,83.53
2023-01-06T04:46:41.339Z,84.36
2023-01-06T04:49:09.067Z,88.67
2023-01-06T04:51:36.581Z,88.97
2023-01-06T04:54:04.307Z,88.82
2023-01-06T04:56:31.849Z,89.73
2023-01-06T04:58:59.467Z,90.05
2023-01-06T05:01:27.930Z,91.30
2023-01-06T05:03:55.673Z,92.58
2023-01-06T05:06:23.555Z,93.63
2023-01-06T05:08:51.200Z,94.51
2023-01-06T05:11:24.640Z,94.90
2023-01-06T05:13:52.874Z,94.78
2023-01-06T05:16:29.046Z,98.28
2023-01-06T05:18:57.657Z,100.00
2023-01-06T05:21:27.190Z,100.00
2023-01-06T05:23:55.909Z,100.00
2023-01-06T05:26:25.424Z,100.00
2023-01-06T05:28:53.428Z,100.00
2023-01-06T05:31:21.027Z,100.00
2023-01-06T05:33:48.764Z,100.00
2023-01-06T05:36:18.607Z,100.00
2023-01-06T05:38:52.563Z,100.00
2023-01-06T05:41:20.402Z,100.00
2023-01-06T05:43:47.887Z,100.00
2023-01-06T05:46:15.506Z,100.00
2023-01-06T05:48:43.265Z,100.00
2023-01-06T05:51:14.001Z,100.00
2023-01-06T05:53:44.321Z,100.00
2023-01-06T05:56:15.617Z,100.00
2023-01-06T05:58:45.997Z,100.00
2023-01-06T06:01:25.451Z,100.00
2023-01-06T06:03:54.397Z,100.00
2023-01-06T06:06:24.016Z,100.00
2023-01-06T06:08:51.842Z,100.00
2023-01-06T06:11:20.353Z,100.00
2023-01-06T06:13:55.410Z,100.00
2023-01-06T06:16:25.837Z,100.00
2023-01-06T06:18:55.743Z,100.00
2023-01-06T06:21:26.882Z,100.00
2023-01-06T06:23:55.813Z,100.00
2023-01-06T06:26:23.818Z,100.00
2023-01-06T06:28:51.626Z,100.00
2023-01-06T06:31:27.870Z,100.00
2023-01-06T06:33:58.067Z,100.00
2023-01-06T06:36:26.143Z,100.00
2023-01-06T06:38:55.058Z,100.00
2023-01-06T06:41:23.284Z,100.00
2023-01-06T06:43:51.898Z,100.00
2023-01-06T06:46:20.449Z,100.00
2023-01-06T06:48:49.807Z,100.00
2023-01-06T06:51:19.557Z,100.00
2023-01-06T06:53:47.778Z,99.80
2023-01-06T06:56:17.243Z,99.55
2023-01-06T06:58:45.023Z,99.47
2023-01-06T07:01:18.699Z,99.70
2023-01-06T07:03:46.292Z,98.72
2023-01-06T07:06:17.989Z,96.17
2023-01-06T07:08:46.986Z,95.31
2023-01-06T07:11:14.951Z,94.88
2023-01-06T07:13:42.524Z,94.36
2023-01-06T07:16:10.408Z,93.25
2023-01-06T07:18:37.980Z,92.14
2023-01-06T07:21:06.435Z,92.09
2023-01-06T07:23:34.632Z,91.82
2023-01-06T07:26:03.172Z,91.64
2023-01-06T07:28:32.271Z,90.70
2023-01-06T07:31:00.934Z,90.24
2023-01-06T07:33:29.651Z,90.28
2023-01-06T07:35:57.890Z,90.56
2023-01-06T07:38:25.963Z,91.31
2023-01-06T07:40:53.831Z,91.74
2023-01-06T07:43:21.433Z,92.92
2023-01-06T07:45:49.449Z,93.34
2023-01-06T07:48:17.325Z,93.68
2023-01-06T07:50:44.992Z,93.89
2023-01-06T07:53:13.397Z,94.69
2023-01-06T07:55:40.847Z,95.14
2023-01-06T07:58:09.968Z,95.85
2023-01-06T08:00:37.902Z,96.71
2023-01-06T08:03:07.169Z,96.80
2023-01-06T08:05:38.561Z,96.79
2023-01-06T08:08:06.271Z,96.42
2023-01-06T08:10:34.504Z,96.15
2023-01-06T08:13:01.967Z,95.96
2023-01-06T08:15:29.545Z,95.37
2023-01-06T08:17:57.157Z,95.21
2023-01-06T08:20:24.899Z,96.26
2023-01-06T08:22:52.389Z,96.37
2023-01-06T08:25:19.954Z,97.13
2023-01-06T08:27:47.520Z,97.62
2023-01-06T08:30:16.933Z,97.56
2023-01-06T08:32:44.448Z,97.37
2023-01-06T08:35:11.988Z,96.82
2023-01-06T08:37:39.383Z,96.80
2023-01-06T08:40:07.398Z,96.75
2023-01-06T08:42:34.863Z,96.91
2023-01-06T08:45:02.479Z,96.14
2023-01-06T08:47:31.349Z,97.78
2023-01-06T08:49:58.869Z,98.07
2023-01-06T08:52:26.316Z,97.68
2023-01-06T08:54:53.841Z,97.53
2023-01-06T08:57:21.264Z,98.02
2023-01-06T08:59:48.842Z,98.43
2023-01-06T09:02:16.441Z,98.15
2023-01-06T09:04:44.086Z,98.42
2023-01-06T09:07:11.607Z,99.26
2023-01-06T09:09:39.103Z,100.00
2023-01-06T09:12:08.128Z,100.00
2023-01-06T09:14:35.723Z,100.00
2023-01-06T09:17:03.225Z,100.00
2023-01-06T09:19:30.805Z,100.00
2023-01-06T09:22:00.232Z,100.00
2023-01-06T09:24:28.481Z,100.00
2023-01-06T09:26:56.005Z,100.00
2023-01-06T09:29:23.552Z,100.00
2023-01-06T09:31:50.985Z,100.00
2023-01-06T09:34:18.484Z,100.00
2023-01-06T09:36:46.220Z,100.00
2023-01-06T09:39:13.625Z,100.00
2023-01-06T09:42:14.935Z,100.00
2023-01-06T09:44:50.646Z,100.00
2023-01-06T09:47:22.440Z,100.00
2023-01-06T09:50:03.030Z,100.00
2023-01-06T09:53:03.655Z,100.00
2023-01-06T09:55:45.536Z,100.00
2023-01-06T09:58:16.578Z,100.00
2023-01-06T10:00:46.237Z,100.00
2023-01-06T10:03:16.950Z,100.00
2023-01-06T10:06:05.832Z,100.00
2023-01-06T10:08:57.817Z,100.00
2023-01-06T10:11:37.651Z,100.00
2023-01-06T10:14:26.508Z,100.00
2023-01-06T10:17:02.480Z,100.00
2023-01-06T10:19:38.857Z,100.00
2023-01-06T10:22:24.564Z,100.00
2023-01-06T10:25:17.333Z,100.00
2023-01-06T10:27:51.823Z,100.00
2023-01-06T10:30:40.154Z,100.00
2023-01-06T10:33:15.893Z,100.00
2023-01-06T10:35:43.675Z,100.00
2023-01-06T10:38:13.009Z,100.00
2023-01-06T10:40:41.170Z,100.00
2023-01-06T10:43:13.000Z,98.96
2023-01-06T10:45:43.232Z,98.26
2023-01-06T10:48:18.733Z,98.63
2023-01-06T10:50:46.506Z,97.99
2023-01-06T10:53:16.033Z,98.05
2023-01-06T10:55:54.608Z,97.69
2023-01-06T10:58:31.183Z,97.61
2023-01-06T11:01:09.695Z,97.66
2023-01-06T11:03:37.655Z,97.21
2023-01-06T11:06:24.494Z,98.49
2023-01-06T11:08:52.223Z,98.42
2023-01-06T11:11:28.226Z,98.66
2023-01-06T11:13:59.858Z,98.62
2023-01-06T11:16:33.368Z,98.61
2023-01-06T11:19:04.079Z,98.04
2023-01-06T11:21:47.102Z,97.88
2023-01-06T11:24:26.644Z,97.49
2023-01-06T11:27:01.490Z,96.99
2023-01-06T11:29:34.668Z,96.20
2023-01-06T11:32:20.804Z,96.48
2023-01-06T11:34:55.856Z,96.27
2023-01-06T11:37:43.817Z,96.15
2023-01-06T11:40:25.652Z,95.49
2023-01-06T11:42:56.435Z,95.94
2023-01-06T11:45:42.311Z,96.15
2023-01-06T11:48:32.505Z,96.32
2023-01-06T11:51:02.912Z,96.99
2023-01-06T11:53:31.593Z,96.35
2023-01-06T11:56:03.827Z,95.99
2023-01-06T11:58:52.056Z,96.30
2023-01-06T12:01:57.623Z,95.76
2023-01-06T12:04:36.239Z,95.79
2023-01-06T12:07:42.144Z,96.51
2023-01-06T12:10:23.113Z,94.80
2023-01-06T12:12:50.989Z,95.18
2023-01-06T12:15:19.784Z,95.51
2023-01-06T12:17:55.822Z,96.20
2023-01-06T12:20:27.888Z,95.10
2023-01-06T12:22:59.142Z,94.86
2023-01-06T12:25:41.157Z,95.03
2023-01-06T12:28:31.637Z,95.65
2023-01-06T12:31:17.025Z,95.34
2023-01-06T12:33:56.726Z,95.29
2023-01-06T12:36:41.527Z,95.39
2023-01-06T12:39:17.673Z,95.17
2023-01-06T12:41:56.776Z,95.13
2023-01-06T12:44:33.413Z,95.79
2023-01-06T12:47:31.686Z,94.99
2023-01-06T12:50:24.878Z,95.10
2023-01-06T12:53:01.282Z,94.94
2023-01-06T12:55:53.735Z,94.78
2023-01-06T12:59:05.491Z,94.93
2023-01-06T13:02:00.189Z,94.55
2023-01-06T13:04:30.918Z,95.73
2023-01-06T13:07:01.527Z,95.27
2023-01-06T13:09:38.274Z,95.30
2023-01-06T13:12:36.693Z,95.52
2023-01-06T13:15:32.244Z,95.30
2023-01-06T13:18:14.872Z,94.84
2023-01-06T13:20:48.596Z,94.91
2023-01-06T13:23:18.897Z,94.37
2023-01-06T13:26:07.651Z,94.54
2023-01-06T13:28:59.880Z,95.00
2023-01-06T13:31:28.033Z,94.58
2023-01-06T13:34:26.294Z,95.24
2023-01-06T13:37:24.600Z,96.08
2023-01-06T13:40:20.122Z,96.44
2023-01-06T13:42:56.625Z,96.67
2023-01-06T13:45:30.721Z,96.31
2023-01-06T13:48:01.489Z,96.46
2023-01-06T13:50:29.319Z,96.50
2023-01-06T13:52:56.942Z,96.40
2023-01-06T13:55:34.138Z,97.19
2023-01-06T13:58:27.083Z,97.48
2023-01-06T14:01:20.562Z,97.43
2023-01-06T14:03:50.560Z,97.72
2023-01-06T14:06:23.974Z,97.92
2023-01-06T14:09:00.272Z,97.26
2023-01-06T14:11:39.174Z,97.39
2023-01-06T14:14:27.418Z,97.72
2023-01-06T14:16:56.679Z,97.96
2023-01-06T14:19:40.186Z,98.13
2023-01-06T14:22:16.824Z,98.27
2023-01-06T14:24:51.336Z,98.59
2023-01-06T14:28:01.523Z,99.09
2023-01-06T14:30:32.599Z,98.45
2023-01-06T14:33:08.043Z,98.27
2023-01-06T14:35:43.501Z,97.80
2023-01-06T14:38:27.240Z,97.84
2023-01-06T14:41:07.523Z,98.05
2023-01-06T14:43:44.191Z,98.35
2023-01-06T14:46:22.585Z,98.50
2023-01-06T14:49:01.951Z,98.43
2023-01-06T14:51:32.014Z,98.41
2023-01-06T14:54:24.409Z,97.68
2023-01-06T14:57:40.900Z,98.19
2023-01-06T15:00:16.461Z,97.86
2023-01-06T15:02:51.930Z,98.39
2023-01-06T15:05:35.150Z,98.38
2023-01-06T15:08:23.630Z,98.39
2023-01-06T15:10:52.083Z,98.58
2023-01-06T15:13:33.116Z,99.33
2023-01-06T15:16:14.460Z,100.00
2023-01-06T15:18:43.928Z,99.41
2023-01-06T15:21:13.426Z,99.15
2023-01-06T15:23:47.666Z,99.57
2023-01-06T15:26:18.629Z,99.63
2023-01-06T15:29:03.965Z,99.54
2023-01-06T15:31:34.583Z,99.83
2023-01-06T15:34:07.119Z,99.88
2023-01-06T15:36:35.782Z,100.00
2023-01-06T15:39:05.757Z,100.00
2023-01-06T15:41:34.528Z,100.00
2023-01-06T15:44:23.863Z,100.00
2023-01-06T15:46:57.132Z,100.00
2023-01-06T15:49:35.345Z,100.00
2023-01-06T15:52:23.820Z,100.00
2023-01-06T15:54:53.335Z,100.00
2023-01-06T15:57:21.645Z,100.00
2023-01-06T16:00:06.432Z,100.00
2023-01-06T16:02:34.412Z,100.00
2023-01-06T16:05:02.784Z,100.00
2023-01-06T16:07:35.590Z,100.00
2023-01-06T16:10:32.459Z,100.00
2023-01-06T16:13:19.048Z,100.00
2023-01-06T16:15:51.266Z,100.00
2023-01-06T16:18:27.484Z,100.00
2023-01-06T16:20:56.116Z,100.00
2023-01-06T16:23:32.502Z,100.00
2023-01-06T16:26:12.252Z,100.00
2023-01-06T16:28:54.615Z,100.00
2023-01-06T16:31:31.477Z,100.00
2023-01-06T16:34:18.375Z,100.00
2023-01-06T16:36:45.905Z,100.00
2023-01-06T16:39:14.224Z,100.00
2023-01-06T16:42:00.197Z,100.00
2023-01-06T16:44:31.726Z,100.00
2023-01-06T16:47:02.104Z,100.00
2023-01-06T16:49:31.076Z,100.00
2023-01-06T16:51:59.831Z,100.00
2023-01-06T16:54:27.503Z,100.00
2023-01-06T16:56:54.960Z,100.00
2023-01-06T16:59:22.571Z,100.00
2023-01-06T17:01:50.286Z,100.00
2023-01-06T17:04:17.929Z,100.00
2023-01-06T17:06:46.230Z,100.00
2023-01-06T17:09:21.987Z,100.00
2023-01-06T17:11:54.476Z,100.00
2023-01-06T17:14:23.670Z,100.00
2023-01-06T17:16:51.461Z,100.00
2023-01-06T17:19:25.513Z,100.00
2023-01-06T17:22:03.231Z,100.00
2023-01-06T17:24:31.677Z,100.00
2023-01-06T17:27:11.993Z,100.00
2023-01-06T17:29:39.682Z,100.00
2023-01-06T17:32:37.519Z,100.00
2023-01-06T17:35:28.754Z,100.00
2023-01-06T17:38:00.985Z,100.00
2023-01-06T17:40:35.280Z,100.00
2023-01-06T17:43:08.108Z,100.00
2023-01-06T17:45:36.905Z,100.00
2023-01-06T17:48:11.999Z,100.00
2023-01-06T17:50:49.986Z,100.00
2023-01-06T17:53:41.639Z,100.00
2023-01-06T17:56:11.519Z,100.00
2023-01-06T17:58:41.677Z,100.00
2023-01-06T18:01:14.782Z,100.00
2023-01-06T18:03:44.079Z,100.00
2023-01-06T18:06:39.906Z,100.00
2023-01-06T18:09:07.522Z,100.00
2023-01-06T18:11:51.172Z,100.00
2023-01-06T18:14:29.241Z,100.00
2023-01-06T18:16:59.641Z,100.00
2023-01-06T18:19:37.857Z,100.00
2023-01-06T18:22:35.871Z,100.00
2023-01-06T18:25:03.758Z,100.00
2023-01-06T18:27:34.905Z,100.00
2023-01-06T18:30:21.894Z,100.00
2023-01-06T18:32:51.393Z,100.00
2023-01-06T18:35:22.599Z,100.00
2023-01-06T18:37:50.498Z,100.00
2023-01-06T18:40:24.368Z,100.00
2023-01-06T18:42:53.946Z,100.00
2023-01-06T18:45:23.666Z,100.00
2023-01-06T18:48:13.431Z,100.00
2023-01-06T18:50:47.131Z,100.00
2023-01-06T18:53:14.561Z,100.00
2023-01-06T18:56:03.366Z,100.00
2023-01-06T18:58:47.978Z,100.00
2023-01-06T19:01:22.612Z,100.00
2023-01-06T19:04:07.178Z,100.00
2023-01-06T19:06:38.952Z,100.00
2023-01-06T19:09:34.722Z,100.00
2023-01-06T19:12:08.348Z,100.00
2023-01-06T19:14:42.202Z,100.00
2023-01-06T19:17:29.187Z,100.00
2023-01-06T19:20:02.443Z,100.00
2023-01-06T19:22:37.293Z,100.00
2023-01-06T19:25:24.552Z,100.00
2023-01-06T19:28:00.383Z,100.00
2023-01-06T19:30:37.016Z,100.00
2023-01-06T19:33:24.974Z,100.00
2023-01-06T19:36:11.713Z,100.00
2023-01-06T19:38:41.993Z,100.00
2023-01-06T19:41:34.580Z,100.00
2023-01-06T19:44:11.537Z,100.00
2023-01-06T19:46:45.014Z,100.00
2023-01-06T19:49:20.102Z,100.00
2023-01-06T19:51:53.507Z,100.00
2023-01-06T19:54:23.948Z,100.00
2023-01-06T19:56:53.493Z,100.00
2023-01-06T19:59:25.994Z,100.00
2023-01-06T20:02:03.810Z,100.00
2023-01-06T20:04:31.486Z,100.00
2023-01-06T20:06:59.385Z,100.00
2023-01-06T20:09:26.909Z,100.00
2023-01-06T20:11:54.656Z,100.00
2023-01-06T20:14:22.431Z,100.00
2023-01-06T20:16:52.930Z,100.00
2023-01-06T20:19:23.557Z,100.00
2023-01-06T20:21:51.305Z,100.00
2023-01-06T20:24:19.109Z,100.00
2023-01-06T20:26:46.605Z,100.00
2023-01-06T20:29:14.223Z,100.00
2023-01-06T20:31:41.761Z,100.00
2023-01-06T20:34:09.297Z,100.00
2023-01-06T20:36:36.864Z,100.00
2023-01-06T20:39:04.311Z,100.00
2023-01-06T20:41:31.968Z,100.00
2023-01-06T20:43:59.503Z,100.00
2023-01-06T20:46:27.040Z,100.00
2023-01-06T20:48:54.584Z,100.00
2023-01-06T20:51:22.052Z,100.00
2023-01-06T20:53:49.617Z,100.00
2023-01-06T20:56:17.266Z,100.00
2023-01-06T20:58:44.868Z,100.00
2023-01-06T21:01:12.448Z,100.00
2023-01-06T21:03:39.952Z,100.00
2023-01-06T21:06:07.890Z,100.00
2023-01-06T21:08:35.574Z,100.00
2023-01-06T21:11:03.342Z,100.00
2023-01-06T21:13:30.915Z,100.00
2023-01-06T21:15:58.415Z,100.00
2023-01-06T21:18:26.040Z,100.00
2023-01-06T21:20:53.592Z,100.00
2023-01-06T21:23:21.276Z,100.00
2023-01-06T21:25:48.788Z,100.00
2023-01-06T21:28:16.303Z,100.00
2023-01-06T21:30:43.812Z,100.00
2023-01-06T21:33:11.493Z,100.00
2023-01-06T21:35:39.072Z,100.00
2023-01-06T21:38:06.611Z,100.00
2023-01-06T21:40:34.123Z,100.00
2023-01-06T21:43:10.522Z,100.00
2023-01-06T21:45:40.842Z,100.00
2023-01-06T21:48:09.281Z,100.00
2023-01-06T21:50:45.149Z,100.00
2023-01-06T21:53:13.658Z,100.00
2023-01-06T21:55:41.791Z,100.00
2023-01-06T21:58:10.444Z,100.00
2023-01-06T22:00:37.975Z,100.00
2023-01-06T22:03:05.568Z,100.00
2023-01-06T22:05:34.257Z,100.00
2023-01-06T22:08:01.674Z,100.00
2023-01-06T22:10:29.241Z,100.00
2023-01-06T22:12:59.471Z,99.52
2023-01-06T22:15:28.535Z,99.70
2023-01-06T22:17:59.156Z,100.00
2023-01-06T22:20:31.716Z,100.00
2023-01-06T22:23:06.572Z,100.00
2023-01-06T22:25:34.132Z,100.00
2023-01-06T22:28:03.507Z,100.00
2023-01-06T22:30:31.211Z,99.94
2023-01-06T22:32:58.828Z,99.97
2023-01-06T22:35:26.492Z,99.06
2023-01-06T22:37:54.157Z,98.91
2023-01-06T22:40:21.842Z,98.09
2023-01-06T22:42:49.401Z,97.05
2023-01-06T22:45:16.843Z,95.79
2023-01-06T22:47:44.418Z,95.33
2023-01-06T22:50:12.105Z,94.90
2023-01-06T22:52:39.647Z,94.04
2023-01-06T22:55:07.848Z,94.13
2023-01-06T22:57:35.391Z,93.47
2023-01-06T23:00:03.251Z,93.58
2023-01-06T23:02:31.788Z,93.53
2023-01-06T23:04:59.443Z,93.05
2023-01-06T23:07:26.980Z,92.53
2023-01-06T23:09:54.509Z,92.32
2023-01-06T23:12:21.986Z,91.70
2023-01-06T23:14:49.442Z,91.97
2023-01-06T23:17:17.003Z,91.61
2023-01-06T23:19:44.485Z,91.03
2023-01-06T23:22:11.952Z,91.41
2023-01-06T23:24:39.399Z,91.29
2023-01-06T23:27:07.688Z,91.23
2023-01-06T23:29:35.313Z,91.37
2023-01-06T23:32:02.784Z,91.27
2023-01-06T23:34:30.315Z,91.12
2023-01-06T23:36:57.735Z,91.23
2023-01-06T23:39:25.871Z,91.07
2023-01-06T23:41:54.937Z,91.38
2023-01-06T23:44:22.383Z,91.26
2023-01-06T23:46:49.952Z,91.42
2023-01-06T23:49:17.774Z,91.58
2023-01-06T23:51:45.666Z,90.89
2023-01-06T23:54:13.830Z,91.28
2023-01-06T23:56:41.996Z,91.91
2023-01-06T23:59:12.315Z,91.43
